createdAt,value
2023-03-05T00:01:26.254Z,7.91
2023-03-05T00:03:55.894Z,7.93
2023-03-05T00:06:26.508Z,7.94
2023-03-05T00:08:55.026Z,7.98
2023-03-05T00:11:22.989Z,7.95
2023-03-05T00:13:53.516Z,7.93
2023-03-05T00:16:22.376Z,7.94
2023-03-05T00:18:49.909Z,7.89
2023-03-05T00:21:26.176Z,7.90
2023-03-05T00:23:54.355Z,7.85
2023-03-05T00:26:24.671Z,7.82
2023-03-05T00:28:52.567Z,7.72
2023-03-05T00:31:22.105Z,7.71
2023-03-05T00:33:54.062Z,7.72
2023-03-05T00:36:21.633Z,7.64
2023-03-05T00:38:49.976Z,7.63
2023-03-05T00:41:17.508Z,7.63
2023-03-05T00:43:44.890Z,7.63
2023-03-05T00:46:12.284Z,7.57
2023-03-05T00:48:39.611Z,7.34
2023-03-05T00:51:07.128Z,7.19
2023-03-05T00:53:34.651Z,7.06
2023-03-05T00:56:01.975Z,6.88
2023-03-05T00:58:29.864Z,6.93
2023-03-05T01:00:59.544Z,6.68
2023-03-05T01:03:27.327Z,6.63
2023-03-05T01:05:56.346Z,6.59
2023-03-05T01:08:24.363Z,6.70
2023-03-05T01:10:52.217Z,6.75
2023-03-05T01:13:20.164Z,6.69
2023-03-05T01:15:48.704Z,6.67
2023-03-05T01:18:17.280Z,6.66
2023-03-05T01:20:44.666Z,6.73
2023-03-05T01:23:12.274Z,6.77
2023-03-05T01:25:41.338Z,6.79
2023-03-05T01:28:09.250Z,6.71
2023-03-05T01:30:36.848Z,6.71
2023-03-05T01:33:04.196Z,6.79
2023-03-05T01:35:31.661Z,6.82
2023-03-05T01:37:58.979Z,6.81
2023-03-05T01:40:29.654Z,6.54
2023-03-05T01:43:01.090Z,6.57
2023-03-05T01:45:32.633Z,6.51
2023-03-05T01:48:00.713Z,6.47
2023-03-05T01:50:29.237Z,6.53
2023-03-05T01:53:03.928Z,6.41
2023-03-05T01:55:33.997Z,6.31
2023-03-05T01:58:12.835Z,6.09
2023-03-05T02:00:46.990Z,6.20
2023-03-05T02:03:14.484Z,6.45
2023-03-05T02:05:46.107Z,6.28
2023-03-05T02:08:16.600Z,6.24
2023-03-05T02:10:48.065Z,6.25
2023-03-05T02:13:21.374Z,6.37
2023-03-05T02:15:49.899Z,6.09
2023-03-05T02:18:18.798Z,6.21
2023-03-05T02:21:12.336Z,6.12
2023-03-05T02:23:40.197Z,6.18
2023-03-05T02:26:10.871Z,6.25
2023-03-05T02:28:47.392Z,6.13
2023-03-05T02:31:23.068Z,6.12
2023-03-05T02:33:51.307Z,6.07
2023-03-05T02:36:20.297Z,6.15
2023-03-05T02:38:47.848Z,6.16
2023-03-05T02:41:15.739Z,6.08
2023-03-05T02:43:43.493Z,6.09
2023-03-05T02:46:11.486Z,6.12
2023-03-05T02:48:39.978Z,6.12
2023-03-05T02:51:09.381Z,6.15
2023-03-05T02:53:36.676Z,6.05
2023-03-05T02:56:04.581Z,6.09
2023-03-05T02:58:34.524Z,5.86
2023-03-05T03:01:03.998Z,5.85
2023-03-05T03:03:31.491Z,5.89
2023-03-05T03:05:59.713Z,5.94
2023-03-05T03:08:27.187Z,5.97
2023-03-05T03:10:56.430Z,6.03
2023-03-05T03:13:25.197Z,5.94
2023-03-05T03:16:02.438Z,6.00
2023-03-05T03:18:29.801Z,5.97
2023-03-05T03:20:57.118Z,5.90
2023-03-05T03:23:24.433Z,5.94
2023-03-05T03:25:52.051Z,5.96
2023-03-05T03:28:19.348Z,6.00
2023-03-05T03:30:46.705Z,5.95
2023-03-05T03:33:14.090Z,5.91
2023-03-05T03:35:45.306Z,5.89
2023-03-05T03:38:13.871Z,5.94
2023-03-05T03:40:42.164Z,5.94
2023-03-05T03:43:09.476Z,5.96
2023-03-05T03:45:40.894Z,5.99
2023-03-05T03:48:08.181Z,6.00
2023-03-05T03:50:40.677Z,6.03
2023-03-05T03:53:09.093Z,6.01
2023-03-05T03:55:36.453Z,5.99
2023-03-05T03:58:04.161Z,5.97
2023-03-05T04:00:31.705Z,5.96
2023-03-05T04:02:59.021Z,5.96
2023-03-05T04:05:26.445Z,6.02
2023-03-05T04:07:53.782Z,5.91
2023-03-05T04:10:21.129Z,5.96
2023-03-05T04:12:48.402Z,5.87
2023-03-05T04:15:15.808Z,5.90
2023-03-05T04:17:43.217Z,5.95
2023-03-05T04:20:11.192Z,5.93
2023-03-05T04:22:38.468Z,5.89
2023-03-05T04:25:06.616Z,5.90
2023-03-05T04:27:36.100Z,5.89
2023-03-05T04:30:04.454Z,5.84
2023-03-05T04:32:32.348Z,5.75
2023-03-05T04:34:59.683Z,5.83
2023-03-05T04:37:27.343Z,5.77
2023-03-05T04:39:54.745Z,5.77
2023-03-05T04:42:22.067Z,5.78
2023-03-05T04:44:50.211Z,5.83
2023-03-05T04:47:18.923Z,5.89
2023-03-05T04:49:46.301Z,5.91
2023-03-05T04:52:14.331Z,5.86
2023-03-05T04:54:44.036Z,5.87
2023-03-05T04:57:11.430Z,5.78
2023-03-05T04:59:38.850Z,5.63
2023-03-05T05:02:06.470Z,5.38
2023-03-05T05:04:35.592Z,5.34
2023-03-05T05:07:05.754Z,5.43
2023-03-05T05:09:33.408Z,5.37
2023-03-05T05:12:00.659Z,5.32
2023-03-05T05:14:28.026Z,5.26
2023-03-05T05:16:55.307Z,5.14
2023-03-05T05:19:22.972Z,4.95
2023-03-05T05:21:50.276Z,5.01
2023-03-05T05:24:17.614Z,4.93
2023-03-05T05:26:44.925Z,5.04
2023-03-05T05:29:12.313Z,5.06
2023-03-05T05:31:39.956Z,5.04
2023-03-05T05:34:07.336Z,5.10
2023-03-05T05:36:34.630Z,4.97
2023-03-05T05:39:02.032Z,4.87
2023-03-05T05:41:29.524Z,4.77
2023-03-05T05:43:57.054Z,4.72
2023-03-05T05:46:25.813Z,4.60
2023-03-05T05:48:53.180Z,4.57
2023-03-05T05:51:22.171Z,4.68
2023-03-05T05:53:50.124Z,4.67
2023-03-05T05:56:20.436Z,4.78
2023-03-05T05:58:48.437Z,4.82
2023-03-05T06:01:28.436Z,4.78
2023-03-05T06:03:56.477Z,4.90
2023-03-05T06:06:26.283Z,4.94
2023-03-05T06:08:54.365Z,5.00
2023-03-05T06:11:22.363Z,4.98
2023-03-05T06:13:50.211Z,5.16
2023-03-05T06:16:24.008Z,5.14
2023-03-05T06:18:52.629Z,5.12
2023-03-05T06:21:21.209Z,5.08
2023-03-05T06:23:50.856Z,5.20
2023-03-05T06:26:20.929Z,5.73
2023-03-05T06:28:48.359Z,6.42
2023-03-05T06:31:26.099Z,7.01
2023-03-05T06:34:03.004Z,7.58
2023-03-05T06:36:30.576Z,7.95
2023-03-05T06:38:59.127Z,8.08
2023-03-05T06:41:29.704Z,8.64
2023-03-05T06:43:58.999Z,8.88
2023-03-05T06:46:29.697Z,8.81
2023-03-05T06:48:59.644Z,9.52
2023-03-05T06:51:35.449Z,9.39
2023-03-05T06:54:08.764Z,9.43
2023-03-05T06:56:37.361Z,9.79
2023-03-05T06:59:05.590Z,10.12
2023-03-05T07:01:33.429Z,10.07
2023-03-05T07:04:03.009Z,10.21
2023-03-05T07:06:35.659Z,10.17
2023-03-05T07:09:04.175Z,10.06
2023-03-05T07:11:31.660Z,10.27
2023-03-05T07:13:59.953Z,10.43
2023-03-05T07:16:30.462Z,10.52
2023-03-05T07:18:59.465Z,10.86
2023-03-05T07:21:28.767Z,10.80
2023-03-05T07:23:59.748Z,10.25
2023-03-05T07:26:27.738Z,9.92
2023-03-05T07:28:59.508Z,10.18
2023-03-05T07:31:30.874Z,10.43
2023-03-05T07:34:00.471Z,10.95
2023-03-05T07:36:28.006Z,11.52
2023-03-05T07:38:55.417Z,11.65
2023-03-05T07:41:23.783Z,11.78
2023-03-05T07:43:53.180Z,11.92
2023-03-05T07:46:23.761Z,12.56
2023-03-05T07:48:51.321Z,13.23
2023-03-05T07:51:20.208Z,13.17
2023-03-05T07:53:49.602Z,14.07
2023-03-05T07:56:24.774Z,14.79
2023-03-05T07:58:55.072Z,15.08
2023-03-05T08:01:22.620Z,14.76
2023-03-05T08:03:50.115Z,15.04
2023-03-05T08:06:17.690Z,15.46
2023-03-05T08:08:45.030Z,16.94
2023-03-05T08:11:15.654Z,16.73
2023-03-05T08:13:44.579Z,17.35
2023-03-05T08:16:17.647Z,17.93
2023-03-05T08:18:45.617Z,18.01
2023-03-05T08:21:33.846Z,18.45
2023-03-05T08:24:06.883Z,18.24
2023-03-05T08:26:38.434Z,18.05
2023-03-05T08:29:07.477Z,18.37
2023-03-05T08:31:34.966Z,18.44
2023-03-05T08:34:03.830Z,18.98
2023-03-05T08:36:31.601Z,19.32
2023-03-05T08:38:59.717Z,19.42
2023-03-05T08:41:27.724Z,19.36
2023-03-05T08:43:55.387Z,19.86
2023-03-05T08:46:22.694Z,19.74
2023-03-05T08:48:50.192Z,19.72
2023-03-05T08:51:22.206Z,19.35
2023-03-05T08:53:49.646Z,20.07
2023-03-05T08:56:16.949Z,19.65
2023-03-05T08:58:46.088Z,19.71
2023-03-05T09:01:13.961Z,19.19
2023-03-05T09:03:44.186Z,18.71
2023-03-05T09:06:14.899Z,18.95
2023-03-05T09:08:42.324Z,19.58
2023-03-05T09:11:12.464Z,19.88
2023-03-05T09:13:40.139Z,20.69
2023-03-05T09:16:11.672Z,20.74
2023-03-05T09:18:40.221Z,20.28
2023-03-05T09:21:09.394Z,20.57
2023-03-05T09:23:37.845Z,21.18
2023-03-05T09:26:06.738Z,20.92
2023-03-05T09:28:34.040Z,20.29
2023-03-05T09:31:06.381Z,21.27
2023-03-05T09:33:36.669Z,20.73
2023-03-05T09:36:05.763Z,20.92
2023-03-05T09:38:33.136Z,20.17
2023-03-05T09:41:16.976Z,20.06
2023-03-05T09:43:56.733Z,20.99
2023-03-05T09:46:44.991Z,21.01
2023-03-05T09:49:38.236Z,20.89
2023-03-05T09:52:22.758Z,20.94
2023-03-05T09:54:55.361Z,20.78
2023-03-05T09:57:31.049Z,20.64
2023-03-05T10:00:07.830Z,20.71
2023-03-05T10:02:50.446Z,20.85
2023-03-05T10:05:17.695Z,21.32
2023-03-05T10:07:55.592Z,21.41
2023-03-05T10:10:44.577Z,20.81
2023-03-05T10:13:26.799Z,20.97
2023-03-05T10:16:16.774Z,21.04
2023-03-05T10:18:56.969Z,20.52
2023-03-05T10:21:46.407Z,21.40
2023-03-05T10:24:37.200Z,20.84
2023-03-05T10:27:09.165Z,20.23
2023-03-05T10:30:01.489Z,19.58
2023-03-05T10:32:28.626Z,19.35
2023-03-05T10:35:11.147Z,19.39
2023-03-05T10:37:54.943Z,19.42
2023-03-05T10:40:32.555Z,19.83
2023-03-05T10:43:57.201Z,18.60
2023-03-05T10:46:35.446Z,18.83
2023-03-05T10:49:23.006Z,18.42
2023-03-05T10:52:04.087Z,19.08
2023-03-05T10:54:33.727Z,18.73
2023-03-05T10:57:05.021Z,18.83
2023-03-05T10:59:32.633Z,18.78
2023-03-05T11:02:06.236Z,18.65
2023-03-05T11:04:39.074Z,18.82
2023-03-05T11:07:13.458Z,18.76
2023-03-05T11:09:42.225Z,18.11
2023-03-05T11:12:19.453Z,18.55
2023-03-05T11:15:04.752Z,18.40
2023-03-05T11:18:07.646Z,18.57
2023-03-05T11:20:36.524Z,18.79
2023-03-05T11:23:08.927Z,18.42
2023-03-05T11:25:59.119Z,18.63
2023-03-05T11:28:39.893Z,18.85
2023-03-05T11:31:16.332Z,18.55
2023-03-05T11:34:04.559Z,17.98
2023-03-05T11:36:37.221Z,18.03
2023-03-05T11:39:07.603Z,17.64
2023-03-05T11:41:43.153Z,17.51
2023-03-05T11:44:17.620Z,17.77
2023-03-05T11:46:48.661Z,17.54
2023-03-05T11:49:28.705Z,17.97
2023-03-05T11:52:31.111Z,18.11
2023-03-05T11:55:04.505Z,18.32
2023-03-05T11:57:41.693Z,18.33
2023-03-05T12:00:15.757Z,18.10
2023-03-05T12:02:43.823Z,17.25
2023-03-05T12:05:15.845Z,17.27
2023-03-05T12:07:47.184Z,17.87
2023-03-05T12:10:20.345Z,18.51
2023-03-05T12:13:13.511Z,18.10
2023-03-05T12:16:05.658Z,17.71
2023-03-05T12:18:35.828Z,17.87
2023-03-05T12:21:14.525Z,18.18
2023-03-05T12:23:54.336Z,18.63
2023-03-05T12:27:05.971Z,18.11
2023-03-05T12:29:33.350Z,18.84
2023-03-05T12:32:01.972Z,18.84
2023-03-05T12:34:41.825Z,17.53
2023-03-05T12:37:31.925Z,17.62
2023-03-05T12:40:00.819Z,18.10
2023-03-05T12:42:28.076Z,18.72
2023-03-05T12:45:14.508Z,18.59
2023-03-05T12:47:46.397Z,18.62
2023-03-05T12:50:39.950Z,18.56
2023-03-05T12:53:07.267Z,17.85
2023-03-05T12:55:35.413Z,18.23
2023-03-05T12:58:39.833Z,17.98
2023-03-05T13:01:31.634Z,18.15
2023-03-05T13:04:10.649Z,17.79
2023-03-05T13:06:39.357Z,17.64
2023-03-05T13:09:18.534Z,17.98
2023-03-05T13:11:50.002Z,18.41
2023-03-05T13:14:26.413Z,18.40
2023-03-05T13:16:53.751Z,18.24
2023-03-05T13:19:21.529Z,18.00
2023-03-05T13:22:09.712Z,17.97
2023-03-05T13:24:37.147Z,17.75
2023-03-05T13:27:20.146Z,18.78
2023-03-05T13:29:52.616Z,18.45
2023-03-05T13:32:30.007Z,17.98
2023-03-05T13:35:00.337Z,18.59
2023-03-05T13:37:33.039Z,18.18
2023-03-05T13:40:26.094Z,18.41
2023-03-05T13:42:53.515Z,18.29
2023-03-05T13:45:22.619Z,17.78
2023-03-05T13:48:19.069Z,17.98
2023-03-05T13:50:46.442Z,18.28
2023-03-05T13:53:24.750Z,18.31
2023-03-05T13:55:56.848Z,18.07
2023-03-05T13:58:44.352Z,18.03
2023-03-05T14:01:26.868Z,17.79
2023-03-05T14:04:02.140Z,17.72
2023-03-05T14:06:31.062Z,17.93
2023-03-05T14:09:04.618Z,18.68
2023-03-05T14:11:32.176Z,17.96
2023-03-05T14:16:55.545Z,17.83
2023-03-05T14:19:40.813Z,17.50
2023-03-05T14:22:36.378Z,17.51
2023-03-05T14:25:05.994Z,17.27
2023-03-05T14:27:37.272Z,17.68
2023-03-05T14:30:05.834Z,17.65
2023-03-05T14:32:36.032Z,17.63
2023-03-05T14:35:05.871Z,17.53
2023-03-05T14:37:42.128Z,17.45
2023-03-05T14:40:12.555Z,17.23
2023-03-05T14:42:56.010Z,17.42
2023-03-05T14:45:26.428Z,16.94
2023-03-05T14:47:55.792Z,16.80
2023-03-05T14:50:26.759Z,17.04
2023-03-05T14:53:00.292Z,16.92
2023-03-05T14:55:31.850Z,16.96
2023-03-05T14:58:21.888Z,16.75
2023-03-05T15:00:51.066Z,16.86
2023-03-05T15:03:20.377Z,16.75
2023-03-05T15:05:51.810Z,16.59
2023-03-05T15:08:25.091Z,16.65
2023-03-05T15:10:53.226Z,16.68
2023-03-05T15:13:20.750Z,16.61
2023-03-05T15:15:49.817Z,16.98
2023-03-05T15:18:22.715Z,16.72
2023-03-05T15:20:53.021Z,16.30
2023-03-05T15:23:20.533Z,16.16
2023-03-05T15:25:47.887Z,16.19
2023-03-05T15:28:18.385Z,16.26
2023-03-05T15:30:47.330Z,16.18
2023-03-05T15:33:17.075Z,16.15
2023-03-05T15:35:45.012Z,16.21
2023-03-05T15:38:12.522Z,16.01
2023-03-05T15:40:39.826Z,15.87
2023-03-05T15:43:07.143Z,16.04
2023-03-05T15:45:34.417Z,15.79
2023-03-05T15:48:01.927Z,16.17
2023-03-05T15:50:29.262Z,15.89
2023-03-05T15:52:57.943Z,15.82
2023-03-05T15:55:25.399Z,15.86
2023-03-05T15:57:53.928Z,15.80
2023-03-05T16:00:29.285Z,15.59
2023-03-05T16:02:56.631Z,15.50
2023-03-05T16:05:24.208Z,15.53
2023-03-05T16:07:53.313Z,15.34
2023-03-05T16:10:25.261Z,15.55
2023-03-05T16:12:55.121Z,15.38
2023-03-05T16:15:22.795Z,15.13
2023-03-05T16:17:54.776Z,15.00
2023-03-05T16:20:22.668Z,15.00
2023-03-05T16:22:50.945Z,14.83
2023-03-05T16:25:18.334Z,14.76
2023-03-05T16:27:45.779Z,14.65
2023-03-05T16:30:15.365Z,14.61
2023-03-05T16:32:43.538Z,14.52
2023-03-05T16:35:12.453Z,14.37
2023-03-05T16:37:44.040Z,14.26
2023-03-05T16:40:12.418Z,14.11
2023-03-05T16:42:39.894Z,13.93
2023-03-05T16:45:08.814Z,13.80
2023-03-05T16:47:36.184Z,13.71
2023-03-05T16:50:04.077Z,13.65
2023-03-05T16:52:31.765Z,13.69
2023-03-05T16:54:59.207Z,13.71
2023-03-05T16:57:28.882Z,13.51
2023-03-05T16:59:57.156Z,13.44
2023-03-05T17:02:24.524Z,13.39
2023-03-05T17:04:51.845Z,13.36
2023-03-05T17:07:19.300Z,13.25
2023-03-05T17:09:48.020Z,13.16
2023-03-05T17:12:15.406Z,13.12
2023-03-05T17:14:42.889Z,13.08
2023-03-05T17:17:10.758Z,13.00
2023-03-05T17:19:38.200Z,13.06
2023-03-05T17:22:05.891Z,12.90
2023-03-05T17:24:33.348Z,12.82
2023-03-05T17:27:01.059Z,12.66
2023-03-05T17:29:29.508Z,12.64
2023-03-05T17:31:56.945Z,12.53
2023-03-05T17:34:35.727Z,12.54
2023-03-05T17:37:05.183Z,12.33
2023-03-05T17:39:32.995Z,12.37
2023-03-05T17:42:01.258Z,12.34
2023-03-05T17:44:29.002Z,12.30
2023-03-05T17:46:56.431Z,12.29
2023-03-05T17:49:23.790Z,12.17
2023-03-05T17:51:51.175Z,12.15
2023-03-05T17:54:18.838Z,12.11
2023-03-05T17:56:48.060Z,12.11
2023-03-05T17:59:16.541Z,12.06
2023-03-05T18:01:43.949Z,12.02
2023-03-05T18:04:11.467Z,11.98
2023-03-05T18:06:40.099Z,11.93
2023-03-05T18:09:07.786Z,11.96
2023-03-05T18:11:39.290Z,11.98
2023-03-05T18:14:10.909Z,11.92
2023-03-05T18:16:39.246Z,11.82
2023-03-05T18:19:08.096Z,11.75
2023-03-05T18:21:35.420Z,11.78
2023-03-05T18:24:03.748Z,11.86
2023-03-05T18:26:31.336Z,11.87
2023-03-05T18:28:58.737Z,11.77
2023-03-05T18:31:27.302Z,11.64
2023-03-05T18:33:54.704Z,11.56
2023-03-05T18:36:22.251Z,11.53
2023-03-05T18:38:49.524Z,11.51
2023-03-05T18:41:21.071Z,11.57
2023-03-05T18:43:48.712Z,11.59
2023-03-05T18:46:16.991Z,11.52
2023-03-05T18:48:44.333Z,11.48
2023-03-05T18:51:19.153Z,11.52
2023-03-05T18:53:46.500Z,11.47
2023-03-05T18:56:14.163Z,11.48
2023-03-05T18:58:41.531Z,11.48
2023-03-05T19:01:11.820Z,11.50
2023-03-05T19:03:39.289Z,11.46
2023-03-05T19:06:07.715Z,11.31
2023-03-05T19:08:35.846Z,11.30
2023-03-05T19:11:03.517Z,11.30
2023-03-05T19:13:40.399Z,11.33
2023-03-05T19:16:17.755Z,11.37
2023-03-05T19:19:20.388Z,11.28
2023-03-05T19:21:59.718Z,11.35
2023-03-05T19:24:30.671Z,11.46
2023-03-05T19:27:01.069Z,11.34
2023-03-05T19:29:33.075Z,11.29
2023-03-05T19:32:00.494Z,11.30
2023-03-05T19:34:27.733Z,11.32
2023-03-05T19:36:55.059Z,11.23
2023-03-05T19:39:22.368Z,11.29
2023-03-05T19:41:49.693Z,11.29
2023-03-05T19:44:19.328Z,11.30
2023-03-05T19:46:48.530Z,11.35
2023-03-05T19:49:18.242Z,11.73
2023-03-05T19:51:46.362Z,11.33
2023-03-05T19:54:17.871Z,11.14
2023-03-05T19:56:46.447Z,11.09
2023-03-05T19:59:17.570Z,10.92
2023-03-05T20:01:45.895Z,10.72
2023-03-05T20:04:15.899Z,10.68
2023-03-05T20:06:43.391Z,10.63
2023-03-05T20:09:11.117Z,10.73
2023-03-05T20:11:39.043Z,10.74
2023-03-05T20:14:07.083Z,10.75
2023-03-05T20:16:36.381Z,10.79
2023-03-05T20:19:06.580Z,10.82
2023-03-05T20:21:40.160Z,10.76
2023-03-05T20:24:11.298Z,10.65
2023-03-05T20:26:40.517Z,10.50
2023-03-05T20:29:08.589Z,10.53
2023-03-05T20:31:37.173Z,10.50
2023-03-05T20:34:06.568Z,10.43
2023-03-05T20:36:34.816Z,10.51
2023-03-05T20:39:03.325Z,10.43
2023-03-05T20:41:32.025Z,10.57
2023-03-05T20:43:59.437Z,10.49
2023-03-05T20:46:30.068Z,10.32
2023-03-05T20:49:02.531Z,10.39
2023-03-05T20:51:36.010Z,10.51
2023-03-05T20:54:07.223Z,10.36
2023-03-05T20:56:35.614Z,10.28
2023-03-05T20:59:07.529Z,10.17
2023-03-05T21:01:37.394Z,10.16
2023-03-05T21:04:04.938Z,10.04
2023-03-05T21:06:33.057Z,9.91
2023-03-05T21:09:00.848Z,10.18
2023-03-05T21:11:28.589Z,10.03
2023-03-05T21:14:14.189Z,10.08
2023-03-05T21:16:41.554Z,9.97
2023-03-05T21:19:08.970Z,9.96
2023-03-05T21:21:36.312Z,9.99
2023-03-05T21:24:03.750Z,10.04
2023-03-05T21:26:31.106Z,9.98
2023-03-05T21:28:58.375Z,9.77
2023-03-05T21:31:25.818Z,9.72
2023-03-05T21:33:54.226Z,9.65
2023-03-05T21:36:21.808Z,9.89
2023-03-05T21:38:49.566Z,9.77
2023-03-05T21:41:18.257Z,9.90
2023-03-05T21:43:45.692Z,9.78
2023-03-05T21:46:13.131Z,9.62
2023-03-05T21:48:40.589Z,9.64
2023-03-05T21:51:40.700Z,9.63
2023-03-05T21:54:19.831Z,9.59
2023-03-05T21:56:47.456Z,9.72
2023-03-05T21:59:14.794Z,9.61
2023-03-05T22:01:44.811Z,9.85
2023-03-05T22:04:12.230Z,9.78
2023-03-05T22:06:39.572Z,9.95
2023-03-05T22:09:06.849Z,9.97
2023-03-05T22:11:34.189Z,9.86
2023-03-05T22:14:01.540Z,9.71
2023-03-05T22:16:29.321Z,9.74
2023-03-05T22:18:56.721Z,9.62
2023-03-05T22:21:28.734Z,9.66
2023-03-05T22:23:59.554Z,9.78
2023-03-05T22:26:35.422Z,9.78
2023-03-05T22:29:02.770Z,9.94
2023-03-05T22:31:30.540Z,9.94
2023-03-05T22:33:58.068Z,10.11
2023-03-05T22:36:25.561Z,9.92
2023-03-05T22:38:53.001Z,9.74
2023-03-05T22:41:21.424Z,9.57
2023-03-05T22:43:49.750Z,9.56
2023-03-05T22:46:26.149Z,9.62
2023-03-05T22:48:53.971Z,9.68
2023-03-05T22:51:21.484Z,9.68
2023-03-05T22:53:48.775Z,9.52
2023-03-05T22:56:19.459Z,9.47
2023-03-05T22:58:46.872Z,9.41
2023-03-05T23:01:22.489Z,9.34
2023-03-05T23:04:38.929Z,9.26
2023-03-05T23:07:09.577Z,9.20
2023-03-05T23:09:36.932Z,9.18
2023-03-05T23:12:04.607Z,9.29
2023-03-05T23:14:32.046Z,9.22
2023-03-05T23:16:59.553Z,9.02
2023-03-05T23:19:29.247Z,8.95
2023-03-05T23:21:56.632Z,8.84
2023-03-05T23:24:23.861Z,8.91
2023-03-05T23:26:51.174Z,8.81
2023-03-05T23:29:24.969Z,8.71
2023-03-05T23:32:04.432Z,8.74
2023-03-05T23:34:34.596Z,8.71
2023-03-05T23:37:02.121Z,8.75
2023-03-05T23:39:29.472Z,8.61
2023-03-05T23:41:56.789Z,8.64
2023-03-05T23:44:24.042Z,8.63
2023-03-05T23:46:51.396Z,8.58
2023-03-05T23:49:18.703Z,8.53
2023-03-05T23:51:46.057Z,8.58
2023-03-05T23:54:13.309Z,8.38
2023-03-05T23:56:43.460Z,8.41
2023-03-05T23:59:10.823Z,8.39
